sensor_id;sensor_type;location;lat;lon;timestamp;temperature;humidity
6536;DHT22;34330;52.08032700;5.40923460;2023-05-10T05:57:01;16.70;95.40
6536;DHT22;34330;52.08032700;5.40923460;2023-05-10T05:59:29;16.70;95.50
6536;DHT22;34330;52.08032700;5.40923460;2023-05-10T06:01:57;16.70;95.40
6536;DHT22;34330;52.08032700;5.40923460;2023-05-10T06:04:25;16.70;95.40
6536;DHT22;34330;52.08032700;5.40923460;2023-05-10T06:06:53;16.70;95.30
6536;DHT22;34330;52.08032700;5.40923460;2023-05-10T06:09:21;16.70;95.30
6536;DHT22;34330;52.08032700;5.40923460;2023-05-10T06:11:50;16.70;95.30
6536;DHT22;34330;52.08032700;5.40923460;2023-05-10T06:14:20;16.70;95.30
6536;DHT22;34330;52.08032700;5.40923460;2023-05-10T06:16:48;16.70;95.30
6536;DHT22;34330;52.08032700;5.40923460;2023-05-10T06:19:16;16.70;95.10
6536;DHT22;34330;52.08032700;5.40923460;2023-05-10T06:21:44;16.70;95.00
6536;DHT22;34330;52.08032700;5.40923460;2023-05-10T06:24:12;16.70;95.10
6536;DHT22;34330;52.08032700;5.40923460;2023-05-10T06:26:40;16.70;95.10
6536;DHT22;34330;52.08032700;5.40923460;2023-05-10T06:29:08;16.70;95.10
6536;DHT22;34330;52.08032700;5.40923460;2023-05-10T06:31:37;16.70;95.10
6536;DHT22;34330;52.08032700;5.40923460;2023-05-10T06:34:05;16.70;95.10
6536;DHT22;34330;52.08032700;5.40923460;2023-05-10T06:36:34;16.70;95.10
6536;DHT22;34330;52.08032700;5.40923460;2023-05-10T06:39:02;16.70;95.10
6536;DHT22;34330;52.08032700;5.40923460;2023-05-10T06:41:30;16.70;95.20
6536;DHT22;34330;52.08032700;5.40923460;2023-05-10T06:43:58;16.80;95.10
6536;DHT22;34330;52.08032700;5.40923460;2023-05-10T06:46:26;16.70;95.20
6536;DHT22;34330;52.08032700;5.40923460;2023-05-10T06:48:55;16.70;95.10
6536;DHT22;34330;52.08032700;5.40923460;2023-05-10T06:51:23;18.50;95.80
6536;DHT22;34330;52.08032700;5.40923460;2023-05-10T06:53:51;16.80;95.10
6536;DHT22;34330;52.08032700;5.40923460;2023-05-10T06:56:19;16.80;95.10
6536;DHT22;34330;52.08032700;5.40923460;2023-05-10T06:58:49;16.80;95.20
6536;DHT22;34330;52.08032700;5.40923460;2023-05-10T07:01:17;16.80;95.10
6536;DHT22;34330;52.08032700;5.40923460;2023-05-10T07:03:45;16.80;95.00
6536;DHT22;34330;52.08032700;5.40923460;2023-05-10T07:06:14;16.80;95.00
6536;DHT22;34330;52.08032700;5.40923460;2023-05-10T07:08:58;16.80;95.00
6536;DHT22;34330;52.08032700;5.40923460;2023-05-10T07:11:27;16.80;94.90
6536;DHT22;34330;52.08032700;5.40923460;2023-05-10T07:13:55;16.90;94.70
6536;DHT22;34330;52.08032700;5.40923460;2023-05-10T07:16:23;16.90;95.00
6536;DHT22;34330;52.08032700;5.40923460;2023-05-10T07:18:51;16.90;94.60
6536;DHT22;34330;52.08032700;5.40923460;2023-05-10T07:21:21;16.90;94.50
6536;DHT22;34330;52.08032700;5.40923460;2023-05-10T07:23:50;16.90;94.60
6536;DHT22;34330;52.08032700;5.40923460;2023-05-10T07:26:18;17.00;94.60
6536;DHT22;34330;52.08032700;5.40923460;2023-05-10T07:28:47;16.90;94.60
6536;DHT22;34330;52.08032700;5.40923460;2023-05-10T07:31:15;17.00;94.60
6536;DHT22;34330;52.08032700;5.40923460;2023-05-10T07:33:43;17.00;94.50
6536;DHT22;34330;52.08032700;5.40923460;2023-05-10T07:36:11;17.00;94.20
6536;DHT22;34330;52.08032700;5.40923460;2023-05-10T07:38:40;17.00;94.30
6536;DHT22;34330;52.08032700;5.40923460;2023-05-10T07:41:08;17.10;94.40
6536;DHT22;34330;52.08032700;5.40923460;2023-05-10T07:43:36;17.10;94.40
6536;DHT22;34330;52.08032700;5.40923460;2023-05-10T07:46:04;17.10;94.20
6536;DHT22;34330;52.08032700;5.40923460;2023-05-10T07:48:32;17.10;94.20
6536;DHT22;34330;52.08032700;5.40923460;2023-05-10T07:51:00;17.10;94.10
6536;DHT22;34330;52.08032700;5.40923460;2023-05-10T07:53:28;17.20;94.10
6536;DHT22;34330;52.08032700;5.40923460;2023-05-10T07:55:58;17.20;94.20
6536;DHT22;34330;52.08032700;5.40923460;2023-05-10T07:58:26;17.20;94.10
6536;DHT22;34330;52.08032700;5.40923460;2023-05-10T08:00:54;17.20;94.10
6536;DHT22;34330;52.08032700;5.40923460;2023-05-10T08:03:23;17.30;94.10
6536;DHT22;34330;52.08032700;5.40923460;2023-05-10T08:05:51;17.30;93.90
6536;DHT22;34330;52.08032700;5.40923460;2023-05-10T08:08:18;17.30;93.80
6536;DHT22;34330;52.08032700;5.40923460;2023-05-10T08:10:48;17.30;93.70
6536;DHT22;34330;52.08032700;5.40923460;2023-05-10T08:13:17;17.30;93.70
6536;DHT22;34330;52.08032700;5.40923460;2023-05-10T08:15:45;17.30;93.80
6536;DHT22;34330;52.08032700;5.40923460;2023-05-10T08:18:14;17.40;93.80
6536;DHT22;34330;52.08032700;5.40923460;2023-05-10T08:20:42;17.40;93.70
6536;DHT22;34330;52.08032700;5.40923460;2023-05-10T08:23:11;17.40;93.90
6536;DHT22;34330;52.08032700;5.40923460;2023-05-10T08:25:39;17.50;94.00
6536;DHT22;34330;52.08032700;5.40923460;2023-05-10T08:28:07;17.50;94.00
6536;DHT22;34330;52.08032700;5.40923460;2023-05-10T08:30:39;17.50;93.90
6536;DHT22;34330;52.08032700;5.40923460;2023-05-10T08:33:06;17.60;93.90
6536;DHT22;34330;52.08032700;5.40923460;2023-05-10T08:35:34;17.60;94.00
6536;DHT22;34330;52.08032700;5.40923460;2023-05-10T08:38:02;17.70;94.00
6536;DHT22;34330;52.08032700;5.40923460;2023-05-10T08:40:30;17.70;93.90
6536;DHT22;34330;52.08032700;5.40923460;2023-05-10T08:43:03;17.80;93.60
6536;DHT22;34330;52.08032700;5.40923460;2023-05-10T08:45:36;17.80;93.50
6536;DHT22;34330;52.08032700;5.40923460;2023-05-10T08:48:07;17.90;93.40
6536;DHT22;34330;52.08032700;5.40923460;2023-05-10T08:50:36;17.90;93.20
6536;DHT22;34330;52.08032700;5.40923460;2023-05-10T08:53:10;17.90;93.10
6536;DHT22;34330;52.08032700;5.40923460;2023-05-10T08:55:38;17.90;93.00
6536;DHT22;34330;52.08032700;5.40923460;2023-05-10T08:58:07;18.00;92.90
6536;DHT22;34330;52.08032700;5.40923460;2023-05-10T09:00:36;18.00;92.90
6536;DHT22;34330;52.08032700;5.40923460;2023-05-10T09:03:05;18.10;92.70
6536;DHT22;34330;52.08032700;5.40923460;2023-05-10T09:05:33;18.10;92.70
6536;DHT22;34330;52.08032700;5.40923460;2023-05-10T09:08:03;18.00;92.70
6536;DHT22;34330;52.08032700;5.40923460;2023-05-10T09:10:31;18.00;92.80
6536;DHT22;34330;52.08032700;5.40923460;2023-05-10T09:13:00;18.00;92.90
6536;DHT22;34330;52.08032700;5.40923460;2023-05-10T09:15:28;18.10;93.00
6536;DHT22;34330;52.08032700;5.40923460;2023-05-10T09:17:56;18.10;92.90
6536;DHT22;34330;52.08032700;5.40923460;2023-05-10T09:20:27;18.10;92.70
6536;DHT22;34330;52.08032700;5.40923460;2023-05-10T09:22:55;18.10;92.80
6536;DHT22;34330;52.08032700;5.40923460;2023-05-10T09:25:23;18.10;93.00
6536;DHT22;34330;52.08032700;5.40923460;2023-05-10T09:27:52;18.20;92.80
6536;DHT22;34330;52.08032700;5.40923460;2023-05-10T09:30:24;18.20;92.60
6536;DHT22;34330;52.08032700;5.40923460;2023-05-10T09:32:53;18.30;92.70
6536;DHT22;34330;52.08032700;5.40923460;2023-05-10T09:35:23;18.30;92.50
6536;DHT22;34330;52.08032700;5.40923460;2023-05-10T09:37:57;18.40;92.50
6536;DHT22;34330;52.08032700;5.40923460;2023-05-10T09:40:26;18.40;92.50
6536;DHT22;34330;52.08032700;5.40923460;2023-05-10T09:42:56;18.50;92.70
6536;DHT22;34330;52.08032700;5.40923460;2023-05-10T09:45:26;18.60;92.50
6536;DHT22;34330;52.08032700;5.40923460;2023-05-10T09:47:54;18.60;92.30
6536;DHT22;34330;52.08032700;5.40923460;2023-05-10T09:50:23;18.70;92.00
6536;DHT22;34330;52.08032700;5.40923460;2023-05-10T09:52:53;18.80;91.90
6536;DHT22;34330;52.08032700;5.40923460;2023-05-10T09:55:25;18.90;91.90
6536;DHT22;34330;52.08032700;5.40923460;2023-05-10T09:58:00;18.90;91.60
6536;DHT22;34330;52.08032700;5.40923460;2023-05-10T10:00:28;18.90;91.40
6536;DHT22;34330;52.08032700;5.40923460;2023-05-10T10:03:02;19.00;91.50
6536;DHT22;34330;52.08032700;5.40923460;2023-05-10T10:05:30;19.00;91.40
6536;DHT22;34330;52.08032700;5.40923460;2023-05-10T10:07:59;19.00;91.30
6536;DHT22;34330;52.08032700;5.40923460;2023-05-10T10:10:29;19.00;91.20
6536;DHT22;34330;52.08032700;5.40923460;2023-05-10T10:12:58;19.10;91.20
6536;DHT22;34330;52.08032700;5.40923460;2023-05-10T10:15:26;19.10;91.20
6536;DHT22;34330;52.08032700;5.40923460;2023-05-10T10:17:54;19.20;91.70
6536;DHT22;34330;52.08032700;5.40923460;2023-05-10T10:20:22;19.20;91.80
6536;DHT22;34330;52.08032700;5.40923460;2023-05-10T10:22:52;19.30;91.80
6536;DHT22;34330;52.08032700;5.40923460;2023-05-10T10:25:20;19.60;91.70
6536;DHT22;34330;52.08032700;5.40923460;2023-05-10T10:28:02;19.40;91.20
6536;DHT22;34330;52.08032700;5.40923460;2023-05-10T10:30:38;19.50;91.20
6536;DHT22;34330;52.08032700;5.40923460;2023-05-10T10:33:22;19.60;91.10
6536;DHT22;34330;52.08032700;5.40923460;2023-05-10T10:35:55;19.70;91.10
6536;DHT22;34330;52.08032700;5.40923460;2023-05-10T10:38:25;19.80;90.80
6536;DHT22;34330;52.08032700;5.40923460;2023-05-10T10:41:02;19.90;90.60
6536;DHT22;34330;52.08032700;5.40923460;2023-05-10T10:43:32;19.90;90.30
6536;DHT22;34330;52.08032700;5.40923460;2023-05-10T10:46:11;19.90;90.40
6536;DHT22;34330;52.08032700;5.40923460;2023-05-10T10:48:40;19.90;90.10
6536;DHT22;34330;52.08032700;5.40923460;2023-05-10T10:51:08;19.90;90.40
6536;DHT22;34330;52.08032700;5.40923460;2023-05-10T10:53:38;19.90;90.40
6536;DHT22;34330;52.08032700;5.40923460;2023-05-10T10:56:07;19.90;90.30
6536;DHT22;34330;52.08032700;5.40923460;2023-05-10T10:58:38;19.90;90.40
6536;DHT22;34330;52.08032700;5.40923460;2023-05-10T11:01:15;19.80;90.10
6536;DHT22;34330;52.08032700;5.40923460;2023-05-10T11:04:17;19.80;89.40
6536;DHT22;34330;52.08032700;5.40923460;2023-05-10T11:06:45;19.90;89.40
6536;DHT22;34330;52.08032700;5.40923460;2023-05-10T11:09:13;19.90;90.00
6536;DHT22;34330;52.08032700;5.40923460;2023-05-10T11:11:50;19.90;89.80
6536;DHT22;34330;52.08032700;5.40923460;2023-05-10T11:14:21;19.90;89.50
6536;DHT22;34330;52.08032700;5.40923460;2023-05-10T11:16:50;19.90;89.50
6536;DHT22;34330;52.08032700;5.40923460;2023-05-10T11:19:18;19.90;89.90
6536;DHT22;34330;52.08032700;5.40923460;2023-05-10T11:21:48;19.90;89.70
6536;DHT22;34330;52.08032700;5.40923460;2023-05-10T11:24:17;20.00;89.70
6536;DHT22;34330;52.08032700;5.40923460;2023-05-10T11:26:45;19.90;89.80
6536;DHT22;34330;52.08032700;5.40923460;2023-05-10T11:29:15;19.90;90.20
6536;DHT22;34330;52.08032700;5.40923460;2023-05-10T11:31:45;19.90;90.10
6536;DHT22;34330;52.08032700;5.40923460;2023-05-10T11:34:23;19.90;90.40
6536;DHT22;34330;52.08032700;5.40923460;2023-05-10T11:36:52;20.00;90.40
6536;DHT22;34330;52.08032700;5.40923460;2023-05-10T11:39:20;20.10;90.30
6536;DHT22;34330;52.08032700;5.40923460;2023-05-10T11:41:49;20.20;90.10
6536;DHT22;34330;52.08032700;5.40923460;2023-05-10T11:44:17;20.30;90.20
6536;DHT22;34330;52.08032700;5.40923460;2023-05-10T11:46:46;20.40;90.20
6536;DHT22;34330;52.08032700;5.40923460;2023-05-10T11:49:15;20.50;89.80
6536;DHT22;34330;52.08032700;5.40923460;2023-05-10T11:51:43;20.70;89.40
6536;DHT22;34330;52.08032700;5.40923460;2023-05-10T11:54:11;20.70;88.90
6536;DHT22;34330;52.08032700;5.40923460;2023-05-10T11:56:40;20.80;88.10
6536;DHT22;34330;52.08032700;5.40923460;2023-05-10T11:59:08;20.90;88.10
6536;DHT22;34330;52.08032700;5.40923460;2023-05-10T12:01:36;20.90;88.50
6536;DHT22;34330;52.08032700;5.40923460;2023-05-10T12:04:06;21.00;88.00
6536;DHT22;34330;52.08032700;5.40923460;2023-05-10T12:06:40;21.00;87.30
6536;DHT22;34330;52.08032700;5.40923460;2023-05-10T12:09:08;21.10;87.00
6536;DHT22;34330;52.08032700;5.40923460;2023-05-10T12:11:37;21.10;86.90
6536;DHT22;34330;52.08032700;5.40923460;2023-05-10T12:14:09;21.10;86.40
6536;DHT22;34330;52.08032700;5.40923460;2023-05-10T12:16:37;21.10;86.70
6536;DHT22;34330;52.08032700;5.40923460;2023-05-10T12:19:06;21.10;86.90
6536;DHT22;34330;52.08032700;5.40923460;2023-05-10T12:21:34;21.10;86.60
6536;DHT22;34330;52.08032700;5.40923460;2023-05-10T12:24:03;21.20;85.90
6536;DHT22;34330;52.08032700;5.40923460;2023-05-10T12:26:31;21.20;85.80
6536;DHT22;34330;52.08032700;5.40923460;2023-05-10T12:29:13;21.20;84.20
6536;DHT22;34330;52.08032700;5.40923460;2023-05-10T12:31:52;21.20;83.70
6536;DHT22;34330;52.08032700;5.40923460;2023-05-10T12:34:25;21.20;84.00
6536;DHT22;34330;52.08032700;5.40923460;2023-05-10T12:36:53;21.20;84.90
6536;DHT22;34330;52.08032700;5.40923460;2023-05-10T12:39:21;21.30;85.70
6536;DHT22;34330;52.08032700;5.40923460;2023-05-10T12:41:50;21.40;84.80
6536;DHT22;34330;52.08032700;5.40923460;2023-05-10T12:44:18;21.50;84.90
6536;DHT22;34330;52.08032700;5.40923460;2023-05-10T12:46:46;21.60;85.20
6536;DHT22;34330;52.08032700;5.40923460;2023-05-10T12:49:14;21.70;84.40
6536;DHT22;34330;52.08032700;5.40923460;2023-05-10T12:51:44;21.70;83.70
6536;DHT22;34330;52.08032700;5.40923460;2023-05-10T12:54:13;21.70;84.00
6536;DHT22;34330;52.08032700;5.40923460;2023-05-10T12:56:41;21.70;83.50
6536;DHT22;34330;52.08032700;5.40923460;2023-05-10T12:59:09;21.70;83.20
6536;DHT22;34330;52.08032700;5.40923460;2023-05-10T13:01:37;21.70;83.00
6536;DHT22;34330;52.08032700;5.40923460;2023-05-10T13:04:05;21.60;83.10
6536;DHT22;34330;52.08032700;5.40923460;2023-05-10T13:06:33;21.50;83.30
6536;DHT22;34330;52.08032700;5.40923460;2023-05-10T13:09:03;21.40;83.40
6536;DHT22;34330;52.08032700;5.40923460;2023-05-10T13:11:31;21.30;83.60
6536;DHT22;34330;52.08032700;5.40923460;2023-05-10T13:13:59;21.20;84.10
6536;DHT22;34330;52.08032700;5.40923460;2023-05-10T13:16:27;21.00;84.40
6536;DHT22;34330;52.08032700;5.40923460;2023-05-10T13:18:54;20.90;85.10
6536;DHT22;34330;52.08032700;5.40923460;2023-05-10T13:21:22;20.70;85.80
6536;DHT22;34330;52.08032700;5.40923460;2023-05-10T13:23:51;20.60;86.60
6536;DHT22;34330;52.08032700;5.40923460;2023-05-10T13:26:20;20.40;86.80
6536;DHT22;34330;52.08032700;5.40923460;2023-05-10T13:28:49;20.30;87.00
6536;DHT22;34330;52.08032700;5.40923460;2023-05-10T13:31:18;20.20;86.50
6536;DHT22;34330;52.08032700;5.40923460;2023-05-10T13:33:47;20.10;86.80
6536;DHT22;34330;52.08032700;5.40923460;2023-05-10T13:36:15;18.10;85.10
6536;DHT22;34330;52.08032700;5.40923460;2023-05-10T13:38:43;19.90;87.20
6536;DHT22;34330;52.08032700;5.40923460;2023-05-10T13:41:11;19.80;87.00
6536;DHT22;34330;52.08032700;5.40923460;2023-05-10T13:43:40;19.70;86.90
6536;DHT22;34330;52.08032700;5.40923460;2023-05-10T13:46:08;19.60;87.30
6536;DHT22;34330;52.08032700;5.40923460;2023-05-10T13:48:36;19.50;88.30
6536;DHT22;34330;52.08032700;5.40923460;2023-05-10T13:51:04;19.40;88.00
6536;DHT22;34330;52.08032700;5.40923460;2023-05-10T13:53:32;19.30;88.30
6536;DHT22;34330;52.08032700;5.40923460;2023-05-10T13:56:00;19.30;88.80
6536;DHT22;34330;52.08032700;5.40923460;2023-05-10T13:58:28;19.20;89.10
6536;DHT22;34330;52.08032700;5.40923460;2023-05-10T14:00:58;19.10;89.20
6536;DHT22;34330;52.08032700;5.40923460;2023-05-10T14:03:26;19.10;89.50
6536;DHT22;34330;52.08032700;5.40923460;2023-05-10T14:05:54;19.10;89.70
6536;DHT22;34330;52.08032700;5.40923460;2023-05-10T14:08:21;19.00;90.00
6536;DHT22;34330;52.08032700;5.40923460;2023-05-10T14:10:49;19.00;90.10
6536;DHT22;34330;52.08032700;5.40923460;2023-05-10T14:13:18;19.00;90.20
6536;DHT22;34330;52.08032700;5.40923460;2023-05-10T14:15:46;19.00;90.30
6536;DHT22;34330;52.08032700;5.40923460;2023-05-10T14:18:15;19.00;90.40
6536;DHT22;34330;52.08032700;5.40923460;2023-05-10T14:20:43;18.90;90.80
6536;DHT22;34330;52.08032700;5.40923460;2023-05-10T14:23:11;18.90;90.90
6536;DHT22;34330;52.08032700;5.40923460;2023-05-10T14:25:40;18.90;91.10
6536;DHT22;34330;52.08032700;5.40923460;2023-05-10T14:28:08;18.90;91.10
6536;DHT22;34330;52.08032700;5.40923460;2023-05-10T14:30:36;18.90;91.10
6536;DHT22;34330;52.08032700;5.40923460;2023-05-10T14:33:04;18.90;91.20
6536;DHT22;34330;52.08032700;5.40923460;2023-05-10T14:35:33;18.90;91.60
6536;DHT22;34330;52.08032700;5.40923460;2023-05-10T14:38:01;18.90;91.50
6536;DHT22;34330;52.08032700;5.40923460;2023-05-10T14:40:30;18.90;91.40
6536;DHT22;34330;52.08032700;5.40923460;2023-05-10T14:42:58;18.90;91.40
6536;DHT22;34330;52.08032700;5.40923460;2023-05-10T14:45:26;19.00;91.50
6536;DHT22;34330;52.08032700;5.40923460;2023-05-10T14:47:54;19.00;91.60
6536;DHT22;34330;52.08032700;5.40923460;2023-05-10T14:50:21;19.00;91.60
6536;DHT22;34330;52.08032700;5.40923460;2023-05-10T14:53:04;19.00;91.70
6536;DHT22;34330;52.08032700;5.40923460;2023-05-10T14:55:32;19.10;91.60
6536;DHT22;34330;52.08032700;5.40923460;2023-05-10T14:58:01;19.10;91.60
6536;DHT22;34330;52.08032700;5.40923460;2023-05-10T15:00:29;19.10;91.70
6536;DHT22;34330;52.08032700;5.40923460;2023-05-10T15:02:58;19.20;91.80
6536;DHT22;34330;52.08032700;5.40923460;2023-05-10T15:05:26;19.20;91.80
6536;DHT22;34330;52.08032700;5.40923460;2023-05-10T15:07:54;19.20;91.70
6536;DHT22;34330;52.08032700;5.40923460;2023-05-10T15:10:24;19.30;91.70
6536;DHT22;34330;52.08032700;5.40923460;2023-05-10T15:12:51;19.30;92.00
6536;DHT22;34330;52.08032700;5.40923460;2023-05-10T15:15:20;19.30;92.10
6536;DHT22;34330;52.08032700;5.40923460;2023-05-10T15:17:48;19.30;92.00
6536;DHT22;34330;52.08032700;5.40923460;2023-05-10T15:20:16;19.40;92.10
6536;DHT22;34330;52.08032700;5.40923460;2023-05-10T15:22:44;19.40;92.30
6536;DHT22;34330;52.08032700;5.40923460;2023-05-10T15:25:12;19.50;92.40
6536;DHT22;34330;52.08032700;5.40923460;2023-05-10T15:27:42;19.50;92.40
6536;DHT22;34330;52.08032700;5.40923460;2023-05-10T15:30:11;19.60;92.60
6536;DHT22;34330;52.08032700;5.40923460;2023-05-10T15:32:39;19.60;92.50
6536;DHT22;34330;52.08032700;5.40923460;2023-05-10T15:35:08;19.70;92.40
6536;DHT22;34330;52.08032700;5.40923460;2023-05-10T15:37:37;19.80;92.40
6536;DHT22;34330;52.08032700;5.40923460;2023-05-10T15:40:06;19.90;92.30
6536;DHT22;34330;52.08032700;5.40923460;2023-05-10T15:42:34;19.90;92.00
6536;DHT22;34330;52.08032700;5.40923460;2023-05-10T15:45:04;20.00;92.10
6536;DHT22;34330;52.08032700;5.40923460;2023-05-10T15:47:32;20.00;92.20
6536;DHT22;34330;52.08032700;5.40923460;2023-05-10T15:50:00;20.10;92.00
6536;DHT22;34330;52.08032700;5.40923460;2023-05-10T15:52:28;20.10;92.10
6536;DHT22;34330;52.08032700;5.40923460;2023-05-10T15:54:56;20.20;91.90
6536;DHT22;34330;52.08032700;5.40923460;2023-05-10T15:57:24;20.20;91.60
6536;DHT22;34330;52.08032700;5.40923460;2023-05-10T15:59:52;20.30;91.70
6536;DHT22;34330;52.08032700;5.40923460;2023-05-10T16:02:21;20.30;91.70
6536;DHT22;34330;52.08032700;5.40923460;2023-05-10T16:04:57;20.30;91.40
6536;DHT22;34330;52.08032700;5.40923460;2023-05-10T16:07:25;20.40;91.50
6536;DHT22;34330;52.08032700;5.40923460;2023-05-10T16:09:53;20.40;91.30
6536;DHT22;34330;52.08032700;5.40923460;2023-05-10T16:12:21;20.40;91.20
6536;DHT22;34330;52.08032700;5.40923460;2023-05-10T16:14:48;20.40;90.90
6536;DHT22;34330;52.08032700;5.40923460;2023-05-10T16:17:16;20.40;90.80
6536;DHT22;34330;52.08032700;5.40923460;2023-05-10T16:19:48;20.40;90.80
6536;DHT22;34330;52.08032700;5.40923460;2023-05-10T16:22:16;20.40;90.50
6536;DHT22;34330;52.08032700;5.40923460;2023-05-10T16:24:44;20.30;90.70
6536;DHT22;34330;52.08032700;5.40923460;2023-05-10T16:27:13;20.30;90.80
6536;DHT22;34330;52.08032700;5.40923460;2023-05-10T16:29:41;20.30;90.70
6536;DHT22;34330;52.08032700;5.40923460;2023-05-10T16:32:09;20.40;90.80
6536;DHT22;34330;52.08032700;5.40923460;2023-05-10T16:34:37;20.30;90.80
6536;DHT22;34330;52.08032700;5.40923460;2023-05-10T16:37:06;20.30;90.80
6536;DHT22;34330;52.08032700;5.40923460;2023-05-10T16:39:34;20.30;90.80
6536;DHT22;34330;52.08032700;5.40923460;2023-05-10T16:42:02;20.50;90.90
6536;DHT22;34330;52.08032700;5.40923460;2023-05-10T16:44:30;20.30;90.80
6536;DHT22;34330;52.08032700;5.40923460;2023-05-10T16:46:58;20.20;90.60
6536;DHT22;34330;52.08032700;5.40923460;2023-05-10T16:49:26;20.30;91.00
6536;DHT22;34330;52.08032700;5.40923460;2023-05-10T16:51:54;20.30;91.10
6536;DHT22;34330;52.08032700;5.40923460;2023-05-10T16:54:23;20.30;90.90
6536;DHT22;34330;52.08032700;5.40923460;2023-05-10T16:56:51;20.30;90.80
6536;DHT22;34330;52.08032700;5.40923460;2023-05-10T16:59:20;20.40;90.90
6536;DHT22;34330;52.08032700;5.40923460;2023-05-10T17:01:48;20.40;90.60
6536;DHT22;34330;52.08032700;5.40923460;2023-05-10T17:04:18;20.50;90.50
6536;DHT22;34330;52.08032700;5.40923460;2023-05-10T17:06:46;20.50;90.30
6536;DHT22;34330;52.08032700;5.40923460;2023-05-10T17:09:14;20.50;90.20
6536;DHT22;34330;52.08032700;5.40923460;2023-05-10T17:11:43;20.60;90.30
6536;DHT22;34330;52.08032700;5.40923460;2023-05-10T17:14:12;20.60;90.20
6536;DHT22;34330;52.08032700;5.40923460;2023-05-10T17:16:40;20.60;90.20
6536;DHT22;34330;52.08032700;5.40923460;2023-05-10T17:19:08;20.60;90.10
6536;DHT22;34330;52.08032700;5.40923460;2023-05-10T17:21:37;20.60;90.00
6536;DHT22;34330;52.08032700;5.40923460;2023-05-10T17:24:05;20.60;90.00
6536;DHT22;34330;52.08032700;5.40923460;2023-05-10T17:26:33;20.70;89.80
6536;DHT22;34330;52.08032700;5.40923460;2023-05-10T17:29:02;20.60;89.70
6536;DHT22;34330;52.08032700;5.40923460;2023-05-10T17:31:30;20.70;89.30
6536;DHT22;34330;52.08032700;5.40923460;2023-05-10T17:33:59;20.70;88.90
6536;DHT22;34330;52.08032700;5.40923460;2023-05-10T17:36:31;20.60;88.40
6536;DHT22;34330;52.08032700;5.40923460;2023-05-10T17:38:59;20.60;88.10
6536;DHT22;34330;52.08032700;5.40923460;2023-05-10T17:41:27;20.50;88.40
6536;DHT22;34330;52.08032700;5.40923460;2023-05-10T17:43:55;20.50;87.90
6536;DHT22;34330;52.08032700;5.40923460;2023-05-10T17:46:24;19.20;86.40
6536;DHT22;34330;52.08032700;5.40923460;2023-05-10T17:48:52;20.50;87.90
6536;DHT22;34330;52.08032700;5.40923460;2023-05-10T17:51:20;20.50;88.30
6536;DHT22;34330;52.08032700;5.40923460;2023-05-10T17:53:48;20.40;88.30
6536;DHT22;34330;52.08032700;5.40923460;2023-05-10T17:56:16;20.40;88.20
6536;DHT22;34330;52.08032700;5.40923460;2023-05-10T17:58:44;20.40;88.40
6536;DHT22;34330;52.08032700;5.40923460;2023-05-10T18:01:12;20.40;88.40
6536;DHT22;34330;52.08032700;5.40923460;2023-05-10T18:03:41;20.40;88.80
6536;DHT22;34330;52.08032700;5.40923460;2023-05-10T18:06:09;20.40;88.70
6536;DHT22;34330;52.08032700;5.40923460;2023-05-10T18:08:38;20.40;88.30
6536;DHT22;34330;52.08032700;5.40923460;2023-05-10T18:11:06;20.40;88.40
6536;DHT22;34330;52.08032700;5.40923460;2023-05-10T18:13:34;20.40;88.40
6536;DHT22;34330;52.08032700;5.40923460;2023-05-10T18:16:02;20.40;88.50
6536;DHT22;34330;52.08032700;5.40923460;2023-05-10T18:18:31;20.40;88.80
6536;DHT22;34330;52.08032700;5.40923460;2023-05-10T18:21:00;20.30;88.50
6536;DHT22;34330;52.08032700;5.40923460;2023-05-10T18:23:29;20.30;88.60
6536;DHT22;34330;52.08032700;5.40923460;2023-05-10T18:25:57;20.30;88.30
6536;DHT22;34330;52.08032700;5.40923460;2023-05-10T18:28:25;20.30;88.50
6536;DHT22;34330;52.08032700;5.40923460;2023-05-10T18:30:53;20.20;88.50
6536;DHT22;34330;52.08032700;5.40923460;2023-05-10T18:33:20;20.20;88.90
6536;DHT22;34330;52.08032700;5.40923460;2023-05-10T18:35:48;20.20;88.90
6536;DHT22;34330;52.08032700;5.40923460;2023-05-10T18:38:18;20.20;88.90
6536;DHT22;34330;52.08032700;5.40923460;2023-05-10T18:40:46;20.10;89.00
6536;DHT22;34330;52.08032700;5.40923460;2023-05-10T18:43:14;20.10;88.90
6536;DHT22;34330;52.08032700;5.40923460;2023-05-10T18:45:42;20.10;88.60
6536;DHT22;34330;52.08032700;5.40923460;2023-05-10T18:48:10;20.10;88.60
6536;DHT22;34330;52.08032700;5.40923460;2023-05-10T18:50:38;20.00;88.40
6536;DHT22;34330;52.08032700;5.40923460;2023-05-10T18:53:06;20.00;88.50
6536;DHT22;34330;52.08032700;5.40923460;2023-05-10T18:55:35;20.00;88.50
6536;DHT22;34330;52.08032700;5.40923460;2023-05-10T18:58:03;19.90;89.10
6536;DHT22;34330;52.08032700;5.40923460;2023-05-10T19:00:31;19.90;88.40
6536;DHT22;34330;52.08032700;5.40923460;2023-05-10T19:02:59;19.90;88.60
6536;DHT22;34330;52.08032700;5.40923460;2023-05-10T19:05:27;19.80;88.50
6536;DHT22;34330;52.08032700;5.40923460;2023-05-10T19:07:56;19.80;88.90
6536;DHT22;34330;52.08032700;5.40923460;2023-05-10T19:10:24;19.80;89.10
6536;DHT22;34330;52.08032700;5.40923460;2023-05-10T19:12:53;19.70;89.10
6536;DHT22;34330;52.08032700;5.40923460;2023-05-10T19:15:21;19.70;89.00
6536;DHT22;34330;52.08032700;5.40923460;2023-05-10T19:17:49;19.60;89.10
6536;DHT22;34330;52.08032700;5.40923460;2023-05-10T19:20:17;19.60;89.40
6536;DHT22;34330;52.08032700;5.40923460;2023-05-10T19:22:45;19.60;89.60
6536;DHT22;34330;52.08032700;5.40923460;2023-05-10T19:25:33;19.60;89.80
6536;DHT22;34330;52.08032700;5.40923460;2023-05-10T19:28:02;19.50;89.70
6536;DHT22;34330;52.08032700;5.40923460;2023-05-10T19:30:30;19.50;90.00
6536;DHT22;34330;52.08032700;5.40923460;2023-05-10T19:32:58;19.50;90.00
6536;DHT22;34330;52.08032700;5.40923460;2023-05-10T19:35:28;19.50;90.10
6536;DHT22;34330;52.08032700;5.40923460;2023-05-10T19:37:56;19.40;90.10
6536;DHT22;34330;52.08032700;5.40923460;2023-05-10T19:40:24;19.40;90.10